createdAt,value
2017-03-05T00:00:21.643Z,0
2017-03-05T00:01:22.486Z,0
2017-03-05T00:02:22.098Z,0
2017-03-05T00:03:21.755Z,0
2017-03-05T00:04:22.576Z,0
2017-03-05T00:05:21.838Z,0
2017-03-05T00:06:22.261Z,0
2017-03-05T00:07:22.702Z,0
2017-03-05T00:08:22.744Z,0
2017-03-05T00:09:22.374Z,0
2017-03-05T00:10:22.800Z,0
2017-03-05T00:11:22.848Z,0
2017-03-05T00:12:22.477Z,0
2017-03-05T00:13:22.917Z,0
2017-03-05T00:14:22.955Z,0
2017-03-05T00:15:22.607Z,0
2017-03-05T00:16:22.644Z,0
2017-03-05T00:17:22.668Z,0
2017-03-05T00:18:23.109Z,0
2017-03-05T00:19:22.781Z,0
2017-03-05T00:20:23.189Z,0
2017-03-05T00:21:23.249Z,0
2017-03-05T00:22:22.466Z,0
2017-03-05T00:23:22.887Z,0
2017-03-05T00:24:22.947Z,0
2017-03-05T00:25:23.364Z,0
2017-03-05T00:26:23.386Z,0
2017-03-05T00:27:23.053Z,0
2017-03-05T00:28:22.700Z,0
2017-03-05T00:29:23.544Z,0
2017-03-05T00:30:22.755Z,0
2017-03-05T00:31:23.228Z,0
2017-03-05T00:32:22.856Z,0
2017-03-05T00:33:23.260Z,0
2017-03-05T00:34:23.303Z,0
2017-03-05T00:35:23.756Z,0
2017-03-05T00:36:23.780Z,0
2017-03-05T00:37:23.012Z,0
2017-03-05T00:38:23.849Z,0
2017-03-05T00:39:23.504Z,0
2017-03-05T00:40:24.322Z,0
2017-03-05T00:41:23.569Z,0
2017-03-05T00:42:23.596Z,0
2017-03-05T00:43:23.650Z,0
2017-03-05T00:44:24.083Z,0
2017-03-05T00:45:24.107Z,0
2017-03-05T00:46:24.151Z,0
2017-03-05T00:47:23.792Z,0
2017-03-05T00:48:23.434Z,0
2017-03-05T00:49:24.257Z,0
2017-03-05T00:50:23.497Z,0
2017-03-05T00:51:24.324Z,0
2017-03-05T00:52:23.958Z,0
2017-03-05T00:53:24.166Z,0
2017-03-05T00:54:24.038Z,0
2017-03-05T00:55:24.473Z,0
2017-03-05T00:56:24.117Z,0
2017-03-05T00:57:23.786Z,0
2017-03-05T00:58:24.622Z,0
2017-03-05T00:59:24.241Z,0
2017-03-05T01:00:24.273Z,0
2017-03-05T01:01:24.058Z,0
2017-03-05T01:02:24.352Z,0
2017-03-05T01:03:23.998Z,0
2017-03-05T01:04:24.026Z,0
2017-03-05T01:05:24.071Z,0
2017-03-05T01:06:24.104Z,0
2017-03-05T01:07:24.522Z,0
2017-03-05T01:08:24.575Z,0
2017-03-05T01:09:24.217Z,0
2017-03-05T01:10:25.056Z,0
2017-03-05T01:11:24.664Z,0
2017-03-05T01:12:24.710Z,0
2017-03-05T01:13:25.143Z,0
2017-03-05T01:14:25.203Z,0
2017-03-05T01:15:25.213Z,0
2017-03-05T01:16:25.247Z,0
2017-03-05T01:17:24.889Z,0
2017-03-05T01:18:24.929Z,0
2017-03-05T01:19:24.571Z,0
2017-03-05T01:20:25.045Z,0
2017-03-05T01:21:24.643Z,0
2017-03-05T01:22:25.493Z,0
2017-03-05T01:23:25.123Z,0
2017-03-05T01:24:25.166Z,0
2017-03-05T01:25:25.201Z,0
2017-03-05T01:26:25.625Z,0
2017-03-05T01:27:25.654Z,0
2017-03-05T01:28:24.921Z,0
2017-03-05T01:29:25.369Z,0
2017-03-05T01:30:25.390Z,0
2017-03-05T01:31:25.827Z,0
2017-03-05T01:32:25.462Z,0
2017-03-05T01:33:25.091Z,0
2017-03-05T01:34:25.918Z,0
2017-03-05T01:35:25.548Z,0
2017-03-05T01:36:26.759Z,0
2017-03-05T01:37:25.633Z,0
2017-03-05T01:38:25.283Z,0
2017-03-05T01:39:25.303Z,0
2017-03-05T01:40:25.947Z,0
2017-03-05T01:41:26.181Z,0
2017-03-05T01:42:25.836Z,0
2017-03-05T01:43:25.866Z,0
2017-03-05T01:44:26.292Z,0
2017-03-05T01:45:26.325Z,0
2017-03-05T01:46:25.997Z,0
2017-03-05T01:47:26.424Z,0
2017-03-05T01:48:25.657Z,0
2017-03-05T01:49:26.079Z,0
2017-03-05T01:50:26.553Z,0
2017-03-05T01:51:26.162Z,0
2017-03-05T01:52:25.818Z,0
2017-03-05T01:53:26.239Z,0
2017-03-05T01:54:26.685Z,0
2017-03-05T01:55:27.102Z,0
2017-03-05T01:56:26.334Z,0
2017-03-05T01:57:26.789Z,0
2017-03-05T01:58:26.413Z,0
2017-03-05T01:59:26.573Z,0
2017-03-05T02:00:27.279Z,0
2017-03-05T02:01:26.503Z,0
2017-03-05T02:02:26.593Z,0
2017-03-05T02:03:26.609Z,0
2017-03-05T02:04:27.018Z,0
2017-03-05T02:05:27.100Z,0
2017-03-05T02:06:26.720Z,0
2017-03-05T02:07:27.143Z,0
2017-03-05T02:08:27.207Z,0
2017-03-05T02:09:27.187Z,0
2017-03-05T02:10:26.488Z,0
2017-03-05T02:11:26.492Z,0
2017-03-05T02:12:26.921Z,0
2017-03-05T02:13:26.956Z,0
2017-03-05T02:14:26.995Z,0
2017-03-05T02:15:27.023Z,0
2017-03-05T02:16:26.675Z,0
2017-03-05T02:17:27.120Z,0
2017-03-05T02:18:27.162Z,0
2017-03-05T02:19:27.590Z,0
2017-03-05T02:20:26.807Z,0
2017-03-05T02:21:26.858Z,0
2017-03-05T02:22:27.273Z,0
2017-03-05T02:23:26.939Z,0
2017-03-05T02:24:26.995Z,0
2017-03-05T02:25:26.994Z,0
2017-03-05T02:26:27.453Z,0
2017-03-05T02:27:27.095Z,0
2017-03-05T02:28:27.106Z,0
2017-03-05T02:29:27.565Z,0
2017-03-05T02:30:27.178Z,0
2017-03-05T02:31:27.242Z,0
2017-03-05T02:32:28.059Z,0
2017-03-05T02:33:27.695Z,0
2017-03-05T02:34:27.786Z,0
2017-03-05T02:35:28.165Z,0
2017-03-05T02:36:28.190Z,0
2017-03-05T02:37:27.826Z,0
2017-03-05T02:38:27.878Z,0
2017-03-05T02:39:28.683Z,0
2017-03-05T02:40:27.962Z,0
2017-03-05T02:41:27.582Z,0
2017-03-05T02:42:28.802Z,0
2017-03-05T02:43:27.670Z,0
2017-03-05T02:44:28.475Z,0
2017-03-05T02:45:27.738Z,0
2017-03-05T02:46:27.813Z,0
2017-03-05T02:47:28.234Z,0
2017-03-05T02:48:28.251Z,0
2017-03-05T02:49:28.276Z,0
2017-03-05T02:50:28.316Z,0
2017-03-05T02:51:28.364Z,0
2017-03-05T02:52:27.992Z,0
2017-03-05T02:53:28.452Z,0
2017-03-05T02:54:29.228Z,0
2017-03-05T02:55:28.897Z,0
2017-03-05T02:56:28.538Z,0
2017-03-05T02:57:28.174Z,0
2017-03-05T02:58:28.609Z,0
2017-03-05T02:59:28.623Z,0
2017-03-05T03:00:28.285Z,0
2017-03-05T03:01:28.727Z,0
2017-03-05T03:02:28.752Z,0
2017-03-05T03:03:28.776Z,0
2017-03-05T03:04:28.421Z,0
2017-03-05T03:05:29.249Z,0
2017-03-05T03:06:28.906Z,0
2017-03-05T03:07:29.316Z,0
2017-03-05T03:08:28.955Z,0
2017-03-05T03:09:29.392Z,0
2017-03-05T03:10:29.443Z,0
2017-03-05T03:11:29.061Z,0
2017-03-05T03:12:29.903Z,0
2017-03-05T03:13:29.525Z,0
2017-03-05T03:14:29.180Z,0
2017-03-05T03:15:29.246Z,0
2017-03-05T03:16:29.651Z,0
2017-03-05T03:17:30.094Z,0
2017-03-05T03:18:28.931Z,0
2017-03-05T03:19:29.761Z,0
2017-03-05T03:20:29.798Z,0
2017-03-05T03:21:29.833Z,0
2017-03-05T03:22:29.886Z,0
2017-03-05T03:23:29.502Z,0
2017-03-05T03:24:29.143Z,0
2017-03-05T03:25:29.975Z,0
2017-03-05T03:26:29.607Z,0
2017-03-05T03:27:29.662Z,0
2017-03-05T03:28:29.713Z,0
2017-03-05T03:29:29.744Z,0
2017-03-05T03:30:29.375Z,0
2017-03-05T03:31:29.814Z,0
2017-03-05T03:32:29.832Z,0
2017-03-05T03:33:29.869Z,0
2017-03-05T03:34:30.299Z,0
2017-03-05T03:35:30.357Z,0
2017-03-05T03:36:30.367Z,0
2017-03-05T03:37:29.632Z,0
2017-03-05T03:38:29.678Z,0
2017-03-05T03:39:30.093Z,0
2017-03-05T03:40:30.121Z,0
2017-03-05T03:41:30.193Z,0
2017-03-05T03:42:30.606Z,0
2017-03-05T03:43:30.238Z,0
2017-03-05T03:44:30.270Z,0
2017-03-05T03:45:30.719Z,0
2017-03-05T03:46:29.967Z,0
2017-03-05T03:47:30.773Z,0
2017-03-05T03:48:30.023Z,0
2017-03-05T03:49:30.458Z,0
2017-03-05T03:50:30.109Z,0
2017-03-05T03:51:30.528Z,0
2017-03-05T03:52:30.587Z,0
2017-03-05T03:53:30.603Z,0
2017-03-05T03:54:30.665Z,0
2017-03-05T03:55:30.673Z,0
2017-03-05T03:56:30.698Z,0
2017-03-05T03:57:30.343Z,0
2017-03-05T03:58:30.785Z,0
2017-03-05T03:59:31.607Z,0
2017-03-05T04:00:31.230Z,0
2017-03-05T04:01:30.903Z,0
2017-03-05T04:02:30.525Z,0
2017-03-05T04:03:30.553Z,0
2017-03-05T04:04:31.398Z,0
2017-03-05T04:05:31.476Z,0
2017-03-05T04:06:30.658Z,0
2017-03-05T04:07:31.128Z,0
2017-03-05T04:08:30.744Z,0
2017-03-05T04:09:31.591Z,0
2017-03-05T04:10:30.813Z,0
2017-03-05T04:11:30.903Z,0
2017-03-05T04:12:30.900Z,0
2017-03-05T04:13:31.320Z,0
2017-03-05T04:14:31.751Z,0
2017-03-05T04:15:31.400Z,0
2017-03-05T04:16:31.817Z,0
2017-03-05T04:17:31.067Z,0
2017-03-05T04:18:31.099Z,0
2017-03-05T04:19:31.143Z,0
2017-03-05T04:20:31.953Z,0
2017-03-05T04:21:31.222Z,0
2017-03-05T04:22:31.642Z,0
2017-03-05T04:23:31.674Z,0
2017-03-05T04:24:31.730Z,0
2017-03-05T04:25:31.358Z,0
2017-03-05T04:26:32.180Z,0
2017-03-05T04:27:31.842Z,0
2017-03-05T04:28:31.865Z,0
2017-03-05T04:29:32.287Z,0
2017-03-05T04:30:31.928Z,0
2017-03-05T04:31:31.571Z,0
2017-03-05T04:32:32.778Z,0
2017-03-05T04:33:32.025Z,0
2017-03-05T04:34:31.667Z,0
2017-03-05T04:35:32.096Z,0
2017-03-05T04:36:32.141Z,0
2017-03-05T04:37:32.183Z,0
2017-03-05T04:38:32.639Z,0
2017-03-05T04:39:31.859Z,0
2017-03-05T04:40:32.682Z,0
2017-03-05T04:41:33.100Z,0
2017-03-05T04:42:32.370Z,0
2017-03-05T04:43:31.986Z,0
2017-03-05T04:44:32.459Z,0
2017-03-05T04:45:32.460Z,0
2017-03-05T04:46:32.896Z,0
2017-03-05T04:47:32.540Z,0
2017-03-05T04:48:32.192Z,0
2017-03-05T04:49:33.392Z,0
2017-03-05T04:50:32.622Z,0
2017-03-05T04:51:32.675Z,0
2017-03-05T04:52:32.695Z,0
2017-03-05T04:53:32.743Z,0
2017-03-05T04:54:32.377Z,0
2017-03-05T04:55:32.424Z,0
2017-03-05T04:56:32.477Z,0
2017-03-05T04:57:32.885Z,0
2017-03-05T04:58:32.539Z,0
2017-03-05T04:59:32.558Z,0
2017-03-05T05:00:32.996Z,0
2017-03-05T05:01:33.025Z,0
2017-03-05T05:02:33.849Z,0
2017-03-05T05:03:33.484Z,0
2017-03-05T05:04:32.753Z,0
2017-03-05T05:05:33.162Z,0
2017-03-05T05:06:33.602Z,0
2017-03-05T05:07:33.656Z,0
2017-03-05T05:08:33.288Z,0
2017-03-05T05:09:32.924Z,0
2017-03-05T05:10:32.968Z,0
2017-03-05T05:11:33.406Z,0
2017-03-05T05:12:33.419Z,4
2017-03-05T05:13:33.845Z,4
2017-03-05T05:14:33.518Z,0
2017-03-05T05:15:33.590Z,4
2017-03-05T05:16:33.557Z,4
2017-03-05T05:17:33.606Z,4
2017-03-05T05:18:33.648Z,4
2017-03-05T05:19:33.706Z,12
2017-03-05T05:20:33.717Z,8
2017-03-05T05:21:33.747Z,12
2017-03-05T05:22:33.781Z,12
2017-03-05T05:23:33.420Z,16
2017-03-05T05:24:34.273Z,24
2017-03-05T05:25:34.290Z,24
2017-03-05T05:26:33.544Z,28
2017-03-05T05:27:33.958Z,32
2017-03-05T05:28:33.593Z,36
2017-03-05T05:29:34.074Z,36
2017-03-05T05:30:34.864Z,40
2017-03-05T05:31:34.097Z,48
2017-03-05T05:32:34.538Z,48
2017-03-05T05:33:34.981Z,40
2017-03-05T05:34:34.595Z,36
2017-03-05T05:35:33.879Z,36
2017-03-05T05:36:33.916Z,40
2017-03-05T05:37:34.306Z,40
2017-03-05T05:38:33.958Z,40
2017-03-05T05:39:35.198Z,40
2017-03-05T05:40:34.049Z,44
2017-03-05T05:41:34.072Z,48
2017-03-05T05:42:34.494Z,56
2017-03-05T05:43:34.544Z,60
2017-03-05T05:44:34.581Z,60
2017-03-05T05:45:34.993Z,68
2017-03-05T05:46:35.024Z,80
2017-03-05T05:47:34.692Z,92
2017-03-05T05:48:34.713Z,96
2017-03-05T05:49:35.161Z,104
2017-03-05T05:50:34.801Z,112
2017-03-05T05:51:34.411Z,124
2017-03-05T05:52:34.887Z,136
2017-03-05T05:53:34.913Z,164
2017-03-05T05:54:35.305Z,180
2017-03-05T05:55:34.576Z,184
2017-03-05T05:56:34.604Z,200
2017-03-05T05:57:34.643Z,212
2017-03-05T05:58:35.106Z,236
2017-03-05T05:59:35.128Z,252
2017-03-05T06:00:35.151Z,252
2017-03-05T06:01:34.779Z,292
2017-03-05T06:02:35.210Z,364
2017-03-05T06:03:35.252Z,388
2017-03-05T06:04:35.280Z,400
2017-03-05T06:05:35.739Z,424
2017-03-05T06:06:35.394Z,488
2017-03-05T06:07:35.796Z,616
2017-03-05T06:08:35.854Z,760
2017-03-05T06:09:35.468Z,748
2017-03-05T06:10:35.488Z,756
2017-03-05T06:11:35.955Z,892
2017-03-05T06:12:35.168Z,1088
2017-03-05T06:13:35.624Z,1020
2017-03-05T06:14:36.059Z,1468
2017-03-05T06:15:35.680Z,1584
2017-03-05T06:16:35.325Z,1684
2017-03-05T06:17:36.144Z,1720
2017-03-05T06:18:35.798Z,1512
2017-03-05T06:19:35.446Z,1484
2017-03-05T06:20:35.455Z,1708
2017-03-05T06:21:35.920Z,1800
2017-03-05T06:22:35.535Z,1832
2017-03-05T06:23:35.581Z,2012
2017-03-05T06:24:36.041Z,2164
2017-03-05T06:25:36.048Z,2436
2017-03-05T06:26:36.079Z,2644
2017-03-05T06:27:35.708Z,2928
2017-03-05T06:28:35.784Z,3116
2017-03-05T06:29:35.791Z,3088
2017-03-05T06:30:37.008Z,3072
2017-03-05T06:31:35.871Z,3188
2017-03-05T06:32:36.684Z,3256
2017-03-05T06:33:35.977Z,3148
2017-03-05T06:34:36.762Z,3012
2017-03-05T06:35:36.384Z,2904
2017-03-05T06:36:36.850Z,2784
2017-03-05T06:37:36.481Z,2716
2017-03-05T06:38:36.114Z,2752
2017-03-05T06:39:36.530Z,2832
2017-03-05T06:40:37.391Z,3044
2017-03-05T06:41:36.633Z,3388
2017-03-05T06:42:36.281Z,3792
2017-03-05T06:43:36.717Z,4276
2017-03-05T06:44:36.346Z,4360
2017-03-05T06:45:36.386Z,4248
2017-03-05T06:46:36.802Z,3552
2017-03-05T06:47:37.226Z,3220
2017-03-05T06:48:37.276Z,2748
2017-03-05T06:49:37.316Z,2812
2017-03-05T06:50:36.940Z,2784
2017-03-05T06:51:37.778Z,2952
2017-03-05T06:52:37.015Z,3308
2017-03-05T06:53:37.459Z,3476
2017-03-05T06:54:37.087Z,3312
2017-03-05T06:55:37.127Z,3888
2017-03-05T06:56:37.543Z,4536
2017-03-05T06:57:37.223Z,5084
2017-03-05T06:58:37.242Z,4632
2017-03-05T06:59:37.672Z,5932
2017-03-05T07:00:37.321Z,6300
2017-03-05T07:01:37.333Z,6704
2017-03-05T07:02:37.770Z,7328
2017-03-05T07:03:37.427Z,7444
2017-03-05T07:04:37.849Z,7100
2017-03-05T07:05:37.487Z,7284
2017-03-05T07:06:37.928Z,8232
2017-03-05T07:07:37.968Z,8216
2017-03-05T07:08:37.604Z,7440
2017-03-05T07:09:38.422Z,8908
2017-03-05T07:10:38.076Z,5900
2017-03-05T07:11:38.104Z,5356
2017-03-05T07:12:37.357Z,4952
2017-03-05T07:13:38.178Z,4632
2017-03-05T07:14:38.218Z,4616
2017-03-05T07:15:37.866Z,4840
2017-03-05T07:16:37.903Z,5020
2017-03-05T07:17:37.538Z,4784
2017-03-05T07:18:38.195Z,4520
2017-03-05T07:19:37.632Z,4232
2017-03-05T07:20:38.428Z,4040
2017-03-05T07:21:37.671Z,4080
2017-03-05T07:22:38.105Z,3628
2017-03-05T07:23:38.149Z,2860
2017-03-05T07:24:38.173Z,2256
2017-03-05T07:25:38.619Z,2088
2017-03-05T07:26:38.249Z,2128
2017-03-05T07:27:38.303Z,1992
2017-03-05T07:28:38.327Z,1876
2017-03-05T07:29:37.961Z,1884
2017-03-05T07:30:38.832Z,2040
2017-03-05T07:31:38.424Z,2116
2017-03-05T07:32:38.091Z,2220
2017-03-05T07:33:38.127Z,2652
2017-03-05T07:34:38.174Z,3188
2017-03-05T07:35:38.979Z,2840
2017-03-05T07:36:38.637Z,2428
2017-03-05T07:37:38.653Z,2164
2017-03-05T07:38:39.089Z,1936
2017-03-05T07:39:39.502Z,1768
2017-03-05T07:40:38.774Z,1784
2017-03-05T07:41:39.194Z,1776
2017-03-05T07:42:38.841Z,1908
2017-03-05T07:43:38.476Z,1864
2017-03-05T07:44:39.710Z,2008
2017-03-05T07:45:38.952Z,2268
2017-03-05T07:46:38.993Z,2436
2017-03-05T07:47:38.693Z,2400
2017-03-05T07:48:39.050Z,2488
2017-03-05T07:49:39.108Z,2764
2017-03-05T07:50:39.116Z,2828
2017-03-05T07:51:39.592Z,2808
2017-03-05T07:52:38.840Z,2672
2017-03-05T07:53:40.030Z,2868
2017-03-05T07:54:39.288Z,3076
2017-03-05T07:55:39.310Z,3096
2017-03-05T07:56:39.735Z,2804
2017-03-05T07:57:39.799Z,2660
2017-03-05T07:58:39.479Z,2540
2017-03-05T07:59:39.061Z,2444
2017-03-05T08:00:39.500Z,2560
2017-03-05T08:01:39.912Z,2764
2017-03-05T08:02:39.983Z,2532
2017-03-05T08:03:39.195Z,2124
2017-03-05T08:04:40.031Z,1944
2017-03-05T08:05:40.058Z,1748
2017-03-05T08:06:39.701Z,1660
2017-03-05T08:07:40.148Z,1668
2017-03-05T08:08:39.798Z,1684
2017-03-05T08:09:40.215Z,1804
2017-03-05T08:10:39.856Z,1988
2017-03-05T08:11:39.490Z,2204
2017-03-05T08:12:40.319Z,2420
2017-03-05T08:13:40.348Z,2612
2017-03-05T08:14:40.391Z,2716
2017-03-05T08:15:40.404Z,2856
2017-03-05T08:16:40.073Z,3332
2017-03-05T08:17:40.123Z,3960
2017-03-05T08:18:40.139Z,4380
2017-03-05T08:19:40.158Z,4148
2017-03-05T08:20:40.219Z,3800
2017-03-05T08:21:39.856Z,3700
2017-03-05T08:22:40.675Z,3764
2017-03-05T08:23:40.708Z,4160
2017-03-05T08:24:40.013Z,4860
2017-03-05T08:25:40.773Z,5548
2017-03-05T08:26:40.450Z,6432
2017-03-05T08:27:41.257Z,7288
2017-03-05T08:28:40.515Z,7892
2017-03-05T08:29:40.146Z,8140
2017-03-05T08:30:40.950Z,8180
2017-03-05T08:31:40.621Z,8264
2017-03-05T08:32:40.254Z,8108
2017-03-05T08:33:40.675Z,7952
2017-03-05T08:34:40.700Z,7824
2017-03-05T08:35:40.363Z,7720
2017-03-05T08:36:41.170Z,7496
2017-03-05T08:37:40.435Z,7168
2017-03-05T08:38:41.648Z,7012
2017-03-05T08:39:40.565Z,7092
2017-03-05T08:40:40.546Z,7080
2017-03-05T08:41:41.357Z,7296
2017-03-05T08:42:40.670Z,7160
2017-03-05T08:43:41.438Z,6984
2017-03-05T08:44:41.463Z,7004
2017-03-05T08:45:41.134Z,7100
2017-03-05T08:46:41.571Z,6736
2017-03-05T08:47:41.201Z,6900
2017-03-05T08:48:41.641Z,7168
2017-03-05T08:49:41.277Z,7396
2017-03-05T08:50:42.090Z,7128
2017-03-05T08:51:41.733Z,7044
2017-03-05T08:52:41.387Z,7116
2017-03-05T08:53:41.024Z,7136
2017-03-05T08:54:41.851Z,6992
2017-03-05T08:55:41.101Z,7236
2017-03-05T08:56:42.306Z,8100
2017-03-05T08:57:41.953Z,9324
2017-03-05T08:58:41.593Z,10196
2017-03-05T08:59:42.032Z,10784
2017-03-05T09:00:42.089Z,11248
2017-03-05T09:01:41.320Z,11296
2017-03-05T09:02:41.369Z,11876
2017-03-05T09:03:42.183Z,11952
2017-03-05T09:04:41.834Z,11860
2017-03-05T09:05:42.267Z,12020
2017-03-05T09:06:41.521Z,11656
2017-03-05T09:07:41.558Z,11696
2017-03-05T09:08:41.600Z,11160
2017-03-05T09:09:42.059Z,11036
2017-03-05T09:10:41.648Z,10876
2017-03-05T09:11:42.089Z,10840
2017-03-05T09:12:42.117Z,10564
2017-03-05T09:13:42.547Z,11100
2017-03-05T09:14:41.811Z,10160
2017-03-05T09:15:42.239Z,10580
2017-03-05T09:16:42.680Z,12220
2017-03-05T09:17:42.716Z,11564
2017-03-05T09:18:42.734Z,10488
2017-03-05T09:19:42.395Z,11872
2017-03-05T09:20:42.428Z,12312
2017-03-05T09:21:42.475Z,12152
2017-03-05T09:22:42.537Z,12448
2017-03-05T09:23:42.547Z,15068
2017-03-05T09:24:42.590Z,14352
2017-03-05T09:25:43.419Z,13044
2017-03-05T09:26:42.676Z,13636
2017-03-05T09:27:43.102Z,12772
2017-03-05T09:28:43.521Z,12556
2017-03-05T09:29:43.172Z,12888
2017-03-05T09:30:43.605Z,12668
2017-03-05T09:31:42.869Z,12304
2017-03-05T09:32:42.900Z,12324
2017-03-05T09:33:43.319Z,12556
2017-03-05T09:34:43.366Z,12256
2017-03-05T09:35:43.015Z,12144
2017-03-05T09:36:43.061Z,12420
2017-03-05T09:37:43.086Z,12596
2017-03-05T09:38:43.515Z,12924
2017-03-05T09:39:43.551Z,13956
2017-03-05T09:40:43.206Z,15812
2017-03-05T09:41:43.276Z,14744
2017-03-05T09:42:43.666Z,14348
2017-03-05T09:43:43.728Z,14792
2017-03-05T09:44:44.153Z,14672
2017-03-05T09:45:43.797Z,14340
2017-03-05T09:46:43.469Z,13960
2017-03-05T09:47:43.464Z,13268
2017-03-05T09:48:43.525Z,13124
2017-03-05T09:49:43.545Z,13144
2017-03-05T09:50:43.197Z,12336
2017-03-05T09:51:43.638Z,11580
2017-03-05T09:52:43.676Z,11368
2017-03-05T09:53:43.312Z,10984
2017-03-05T09:54:44.160Z,10928
2017-03-05T09:55:43.789Z,10660
2017-03-05T09:56:43.827Z,10700
2017-03-05T09:57:43.860Z,10772
2017-03-05T09:58:43.904Z,10760
2017-03-05T09:59:43.544Z,10820
2017-03-05T10:00:44.418Z,10764
2017-03-05T10:01:43.625Z,10732
2017-03-05T10:02:43.672Z,11000
2017-03-05T10:03:44.114Z,11180
2017-03-05T10:04:44.137Z,11588
2017-03-05T10:05:43.787Z,11936
2017-03-05T10:06:43.828Z,12132
2017-03-05T10:07:44.257Z,12980
2017-03-05T10:08:44.672Z,12992
2017-03-05T10:09:44.346Z,13780
2017-03-05T10:10:44.374Z,14176
2017-03-05T10:11:44.429Z,14476
2017-03-05T10:12:45.226Z,15036
2017-03-05T10:13:44.121Z,13852
2017-03-05T10:14:44.919Z,13772
2017-03-05T10:15:45.345Z,13172
2017-03-05T10:16:44.602Z,12800
2017-03-05T10:17:45.443Z,12780
2017-03-05T10:18:45.067Z,12544
2017-03-05T10:19:44.759Z,12376
2017-03-05T10:20:45.156Z,11948
2017-03-05T10:21:44.413Z,11736
2017-03-05T10:22:44.867Z,11548
2017-03-05T10:23:45.302Z,11776
2017-03-05T10:24:44.958Z,11580
2017-03-05T10:25:44.957Z,11468
2017-03-05T10:26:45.394Z,11120
2017-03-05T10:27:45.045Z,10876
2017-03-05T10:28:45.115Z,10740
2017-03-05T10:29:45.128Z,10432
2017-03-05T10:30:45.557Z,10228
2017-03-05T10:31:45.199Z,9988
2017-03-05T10:32:46.049Z,9876
2017-03-05T10:33:45.290Z,9760
2017-03-05T10:34:45.725Z,9784
2017-03-05T10:35:45.403Z,9640
2017-03-05T10:36:46.190Z,9568
2017-03-05T10:37:45.421Z,9472
2017-03-05T10:38:45.492Z,9400
2017-03-05T10:39:45.116Z,9424
2017-03-05T10:40:46.323Z,9460
2017-03-05T10:41:46.001Z,9716
2017-03-05T10:42:46.015Z,9592
2017-03-05T10:43:45.677Z,9456
2017-03-05T10:44:45.729Z,9424
2017-03-05T10:45:45.747Z,9436
2017-03-05T10:46:46.175Z,9444
2017-03-05T10:47:45.820Z,9492
2017-03-05T10:48:46.258Z,9540
2017-03-05T10:49:45.507Z,9564
2017-03-05T10:50:45.959Z,9628
2017-03-05T10:51:45.978Z,9732
2017-03-05T10:52:46.421Z,9764
2017-03-05T10:53:46.437Z,10080
2017-03-05T10:54:46.934Z,10108
2017-03-05T10:55:46.122Z,10292
2017-03-05T10:56:46.166Z,10404
2017-03-05T10:57:46.599Z,10520
2017-03-05T10:58:46.034Z,10772
2017-03-05T10:59:46.288Z,11068
2017-03-05T11:00:46.346Z,11468
2017-03-05T11:01:46.222Z,11216
2017-03-05T11:02:45.999Z,11660
2017-03-05T11:03:46.441Z,11968
2017-03-05T11:04:46.469Z,13432
2017-03-05T11:05:46.512Z,13436
2017-03-05T11:06:46.803Z,13308
2017-03-05T11:07:46.192Z,13140
2017-03-05T11:08:46.643Z,14396
2017-03-05T11:09:46.685Z,15192
2017-03-05T11:10:47.491Z,18752
2017-03-05T11:11:46.749Z,18432
2017-03-05T11:12:47.582Z,18304
2017-03-05T11:13:46.469Z,16480
2017-03-05T11:14:47.647Z,15064
2017-03-05T11:15:47.288Z,14480
2017-03-05T11:16:46.568Z,14252
2017-03-05T11:17:47.005Z,13992
2017-03-05T11:18:47.030Z,14248
2017-03-05T11:19:47.060Z,15416
2017-03-05T11:20:46.729Z,17152
2017-03-05T11:21:47.533Z,17856
2017-03-05T11:22:47.570Z,17376
2017-03-05T11:23:48.026Z,15848
2017-03-05T11:24:47.654Z,18016
2017-03-05T11:25:46.925Z,20800
2017-03-05T11:26:48.132Z,12844
2017-03-05T11:27:47.386Z,22112
2017-03-05T11:28:47.049Z,21888
2017-03-05T11:29:47.476Z,19456
2017-03-05T11:30:47.522Z,18816
2017-03-05T11:31:47.954Z,19520
2017-03-05T11:32:47.974Z,21536
2017-03-05T11:33:47.634Z,21568
2017-03-05T11:34:48.067Z,18400
2017-03-05T11:35:47.731Z,17824
2017-03-05T11:36:47.743Z,16928
2017-03-05T11:37:47.791Z,16320
2017-03-05T11:38:47.838Z,14996
2017-03-05T11:39:48.257Z,16052
2017-03-05T11:40:47.509Z,19264
2017-03-05T11:41:47.954Z,15492
2017-03-05T11:42:48.367Z,14208
2017-03-05T11:43:48.042Z,18400
2017-03-05T11:44:48.053Z,18624
2017-03-05T11:45:48.505Z,16100
2017-03-05T11:46:48.137Z,17920
2017-03-05T11:47:47.796Z,16172
2017-03-05T11:48:48.223Z,12508
2017-03-05T11:49:47.863Z,11448
2017-03-05T11:50:47.913Z,10876
2017-03-05T11:51:48.744Z,10240
2017-03-05T11:52:49.156Z,9624
2017-03-05T11:53:48.831Z,8832
2017-03-05T11:54:48.861Z,7904
2017-03-05T11:55:48.124Z,7172
2017-03-05T11:56:48.544Z,6532
2017-03-05T11:57:48.979Z,6148
2017-03-05T11:58:48.620Z,6144
2017-03-05T11:59:48.676Z,6332
2017-03-05T12:00:49.479Z,6584
2017-03-05T12:01:49.533Z,6568
2017-03-05T12:02:48.784Z,6400
2017-03-05T12:03:48.811Z,6200
2017-03-05T12:04:48.861Z,6028
2017-03-05T12:05:48.923Z,5968
2017-03-05T12:06:49.740Z,6060
2017-03-05T12:07:49.761Z,6268
2017-03-05T12:08:48.631Z,6412
2017-03-05T12:09:48.662Z,6464
2017-03-05T12:10:48.731Z,6640
2017-03-05T12:11:48.776Z,6712
2017-03-05T12:12:49.569Z,6648
2017-03-05T12:13:49.210Z,6352
2017-03-05T12:14:48.856Z,5948
2017-03-05T12:15:49.680Z,5384
2017-03-05T12:16:49.318Z,4912
2017-03-05T12:17:49.351Z,4612
2017-03-05T12:18:49.807Z,4392
2017-03-05T12:19:49.439Z,4184
2017-03-05T12:20:49.104Z,3908
2017-03-05T12:21:49.925Z,3576
2017-03-05T12:22:49.573Z,3416
2017-03-05T12:23:50.399Z,3480
2017-03-05T12:24:49.624Z,3624
2017-03-05T12:25:49.712Z,3720
2017-03-05T12:26:50.112Z,3812
2017-03-05T12:27:49.769Z,3980
2017-03-05T12:28:49.800Z,4176
2017-03-05T12:29:50.203Z,4432
2017-03-05T12:30:50.281Z,4896
2017-03-05T12:31:49.897Z,5340
2017-03-05T12:32:49.930Z,5736
2017-03-05T12:33:49.989Z,6212
2017-03-05T12:34:50.008Z,6616
2017-03-05T12:35:50.440Z,6808
2017-03-05T12:36:50.100Z,6860
2017-03-05T12:37:49.743Z,6852
2017-03-05T12:38:50.631Z,6832
2017-03-05T12:39:50.628Z,6716
2017-03-05T12:40:50.243Z,6420
2017-03-05T12:41:50.297Z,5980
2017-03-05T12:42:50.312Z,5548
2017-03-05T12:43:50.751Z,5296
2017-03-05T12:44:50.406Z,5312
2017-03-05T12:45:50.426Z,5460
2017-03-05T12:46:50.854Z,5680
2017-03-05T12:47:50.526Z,5836
2017-03-05T12:48:50.561Z,6164
2017-03-05T12:49:50.993Z,6784
2017-03-05T12:50:51.026Z,7420
2017-03-05T12:51:50.657Z,8704
2017-03-05T12:52:50.690Z,9584
2017-03-05T12:53:50.735Z,10108
2017-03-05T12:54:50.764Z,11232
2017-03-05T12:55:50.841Z,11964
2017-03-05T12:56:51.239Z,12320
2017-03-05T12:57:51.292Z,12076
2017-03-05T12:58:50.978Z,11728
2017-03-05T12:59:50.966Z,11292
2017-03-05T13:00:51.018Z,10904
2017-03-05T13:01:51.058Z,10568
2017-03-05T13:02:51.088Z,10328
2017-03-05T13:03:50.772Z,10028
2017-03-05T13:04:51.147Z,9728
2017-03-05T13:05:51.990Z,9468
2017-03-05T13:06:51.632Z,9184
2017-03-05T13:07:51.301Z,9028
2017-03-05T13:08:51.329Z,8896
2017-03-05T13:09:51.361Z,8792
2017-03-05T13:10:51.001Z,8720
2017-03-05T13:11:52.220Z,8904
2017-03-05T13:12:51.231Z,8948
2017-03-05T13:13:52.292Z,9148
2017-03-05T13:14:51.179Z,9404
2017-03-05T13:15:51.980Z,9468
2017-03-05T13:16:51.639Z,9496
2017-03-05T13:17:51.675Z,9392
2017-03-05T13:18:51.712Z,9348
2017-03-05T13:19:52.185Z,9196
2017-03-05T13:20:51.789Z,8880
2017-03-05T13:21:52.279Z,8668
2017-03-05T13:22:51.482Z,8500
2017-03-05T13:23:52.322Z,8436
2017-03-05T13:24:52.351Z,8320
2017-03-05T13:25:52.382Z,8188
2017-03-05T13:26:52.044Z,8100
2017-03-05T13:27:52.449Z,8020
2017-03-05T13:28:52.115Z,7960
2017-03-05T13:29:52.135Z,7984
2017-03-05T13:30:52.219Z,8388
2017-03-05T13:31:51.821Z,8496
2017-03-05T13:32:52.655Z,8400
2017-03-05T13:33:52.325Z,8464
2017-03-05T13:34:52.334Z,8588
2017-03-05T13:35:52.382Z,8636
2017-03-05T13:36:53.208Z,8508
2017-03-05T13:37:52.497Z,8224
2017-03-05T13:38:52.905Z,7868
2017-03-05T13:39:52.919Z,7600
2017-03-05T13:40:52.577Z,7288
2017-03-05T13:41:52.211Z,6916
2017-03-05T13:42:52.661Z,6488
2017-03-05T13:43:52.335Z,6196
2017-03-05T13:44:52.735Z,5880
2017-03-05T13:45:53.162Z,5564
2017-03-05T13:46:53.204Z,5172
2017-03-05T13:47:52.465Z,5060